Volgo-balt 229 — UHZF — position and weather

sailwx.info

Track history (hours):
 
Tides and Currents Weather Stations Pressure Air Temp Water Temp Dewpoint Dewpoint Depression Visibility Wind Speed Wind Dir Waves Ship Positions

Volgo-balt 229

Last reported at 2016-Feb-09 00:19 UTC. Time now 2016-Feb-12 09:49 UTC.
Position N 54°58' E 018°12'.

Length 113 m; draft 4 m.

Type: Ship. MMSI: 273336300.

Date/timePositionNaut miles runAvg speedWind from/ knotsBaromVisibWave heightAir tempDewpointWater temp
2016-Feb-09 00:19N 54°58' E 018°12'6 8.0
2016-Feb-08 23:33N 54°59' E 018°22'7 7.3
2016-Feb-08 22:33N 55°00' E 018°35'7 7.2
2016-Feb-08 21:33N 55°01' E 018°47'7 7.2
2016-Feb-08 20:33N 55°02' E 018°60'7 6.8
2016-Feb-08 19:33N 55°03' E 019°12'  
2016-Feb-04 11:33N 54°58' E 015°20'9 9.0
2016-Feb-04 10:34N 54°56' E 015°05'9 8.6
2016-Feb-04 09:34N 54°54' E 014°50'9 8.5
2016-Feb-04 08:34N 54°52' E 014°36'9 8.6
2016-Feb-04 07:34N 54°50' E 014°21'8 8.4
2016-Feb-04 06:33N 54°48' E 014°07'64 8.8
2016-Feb-03 23:13N 54°34' E 012°18'12 7.2
2016-Feb-03 21:33N 54°25' E 012°05'8 8.1
2016-Feb-03 20:34N 54°25' E 011°51'9 9.5
2016-Feb-03 19:34N 54°27' E 011°36'10 9.7
2016-Feb-03 18:34N 54°32' E 011°21'10 9.8
2016-Feb-03 17:33N 54°35' E 011°05'9 9.2
2016-Feb-03 16:33N 54°34' E 010°49'9 8.7
2016-Feb-03 15:34N 54°36' E 010°34'9 8.9
2016-Feb-03 14:32N 54°41' E 010°21'  
Track history (hours):
 
Tides and Currents Weather Stations Pressure Air Temp Water Temp Dewpoint Dewpoint Depression Visibility Wind Speed Wind Dir Waves Ship Positions

Volgo-balt 229

Last reported at 2016-Feb-09 00:19 UTC. Time now 2016-Feb-12 09:49 UTC.
Position N 54°58' E 018°12'.

Length 113 m; draft 4 m.

Type: Ship. MMSI: 273336300.

Date/timePositionNaut miles runAvg speedWind from/ knotsBaromVisibWave heightAir tempDewpointWater temp
2016-Feb-09 00:19N 54°58' E 018°12'6 8.0
2016-Feb-08 23:33N 54°59' E 018°22'7 7.3
2016-Feb-08 22:33N 55°00' E 018°35'7 7.2
2016-Feb-08 21:33N 55°01' E 018°47'7 7.2
2016-Feb-08 20:33N 55°02' E 018°60'7 6.8
2016-Feb-08 19:33N 55°03' E 019°12'  
2016-Feb-04 11:33N 54°58' E 015°20'9 9.0
2016-Feb-04 10:34N 54°56' E 015°05'9 8.6
2016-Feb-04 09:34N 54°54' E 014°50'9 8.5
2016-Feb-04 08:34N 54°52' E 014°36'9 8.6
2016-Feb-04 07:34N 54°50' E 014°21'8 8.4
2016-Feb-04 06:33N 54°48' E 014°07'64 8.8
2016-Feb-03 23:13N 54°34' E 012°18'12 7.2
2016-Feb-03 21:33N 54°25' E 012°05'8 8.1
2016-Feb-03 20:34N 54°25' E 011°51'9 9.5
2016-Feb-03 19:34N 54°27' E 011°36'10 9.7
2016-Feb-03 18:34N 54°32' E 011°21'10 9.8
2016-Feb-03 17:33N 54°35' E 011°05'9 9.2
2016-Feb-03 16:33N 54°34' E 010°49'9 8.7
2016-Feb-03 15:34N 54°36' E 010°34'9 8.9
2016-Feb-03 14:32N 54°41' E 010°21'  

Dump ship's entire track history